Main page
METAR-TAF:

METAR-TAF

Airports :

Sarakhs Airport

Sarakhs, Iran

latitude: 36-30-04N, longitude: 061-03-54E, elevation: 288 m

Current weather observation

The report was made 1 hour and 2 minutes ago, at 22:00 UTC
Wind 2 kt from the West
Temperature 2°C
Humidity 80%
Pressure 1029 hPa

METAR: OIMC 212200Z AUTO 28002KT //// // ////// 02/M01 Q1029

Time: 02:32 (23:02 UTC)


TAF: missing

Weather observations and forecasts of more than 4000 airports (METAR and TAF reports).

The available stations are represented by yellow and red dots on the map.

Hover mouse over dot to see the name of the station.

Then click to see weather observations and forecasts.

To change the map : click on the green buttons with a black cross to zoom in, on the green button with a dash to zoom out, or on the green arrows for adjacent maps.


METAR-TAF: